Time;durP1;ratioP1;P1;durP2;ratioP2;P2;SDS_P1;SDS_P2;PMS_P1;PMS_P2;Temp;Humidity;BMP_temperature;BMP_pressure;BME280_temperature;BME280_humidity;BME280_pressure;Samples;Min_cycle;Max_cycle;Signal;HPM_P1;HPM_P2
2022/04/04 00:02:17;;;;;;;12.00;7.68;;;;;;;1.36;74.36;99823.56;5052114;28;20197;-84
2022/04/04 00:04:44;;;;;;;8.25;7.45;;;;;;;1.36;74.45;99824.41;5052042;28;20185;-84
2022/04/04 00:07:10;;;;;;;10.70;7.78;;;;;;;1.39;76.58;99836.75;5051935;28;20197;-84
2022/04/04 00:09:37;;;;;;;10.95;7.95;;;;;;;1.56;76.79;99828.50;5051921;28;20679;-84
2022/04/04 00:12:04;;;;;;;9.23;7.90;;;;;;;1.58;76.89;99829.34;5051905;28;20193;-84
2022/04/04 00:14:31;;;;;;;11.05;8.65;;;;;;;1.67;75.12;99829.16;5051614;28;20204;-84
2022/04/04 00:17:00;;;;;;;15.93;9.50;;;;;;;1.76;75.01;99823.69;5052032;28;20578;-84
2022/04/04 00:19:28;;;;;;;12.07;8.32;;;;;;;1.70;75.67;99825.59;5051657;28;20239;-84
2022/04/04 00:21:55;;;;;;;10.45;8.18;;;;;;;1.63;75.68;99811.56;5050724;28;20557;-83
2022/04/04 00:24:21;;;;;;;13.20;10.48;;;;;;;1.58;77.07;99822.28;5052009;28;20193;-83
2022/04/04 00:26:48;;;;;;;15.15;9.93;;;;;;;1.61;77.57;99808.06;5051184;28;20196;-84
2022/04/04 00:29:15;;;;;;;11.85;9.52;;;;;;;1.56;78.41;99801.94;5047674;28;20209;-84
2022/04/04 00:31:41;;;;;;;10.27;8.30;;;;;;;1.57;78.44;99796.63;5051702;28;20549;-84
2022/04/04 00:34:08;;;;;;;14.48;11.27;;;;;;;1.57;77.95;99793.09;5052137;28;20259;-84
2022/04/04 00:36:36;;;;;;;16.40;10.75;;;;;;;1.38;79.28;99797.84;5051613;28;20201;-84
2022/04/04 00:39:03;;;;;;;12.70;9.38;;;;;;;1.32;78.98;99792.66;5051603;28;20196;-84
2022/04/04 00:41:30;;;;;;;10.45;9.05;;;;;;;1.17;78.03;99793.78;5051214;28;20202;-84
2022/04/04 00:43:57;;;;;;;10.10;9.10;;;;;;;0.95;79.65;99786.19;5051351;28;20239;-83
2022/04/04 00:46:23;;;;;;;12.50;10.02;;;;;;;0.75;80.58;99778.56;5051192;28;20193;-84
2022/04/04 00:48:50;;;;;;;14.65;10.60;;;;;;;0.51;82.54;99779.78;5051601;28;20663;-84
2022/04/04 00:51:16;;;;;;;17.45;11.10;;;;;;;0.41;83.27;99784.34;5051239;28;20197;-84
2022/04/04 00:53:45;;;;;;;14.45;10.80;;;;;;;0.46;83.46;99786.06;5051646;28;20200;-83
2022/04/04 00:56:12;;;;;;;14.50;11.90;;;;;;;0.41;84.25;99783.47;5051596;28;20197;-83
2022/04/04 00:58:39;;;;;;;14.20;10.23;;;;;;;0.42;84.20;99782.56;5045996;28;20221;-83
2022/04/04 01:01:07;;;;;;;14.13;11.70;;;;;;;0.24;85.29;99780.16;5054641;28;20295;-83
2022/04/04 01:03:34;;;;;;;12.80;10.90;;;;;;;0.27;86.39;99782.75;5054942;28;20270;-83
2022/04/04 01:06:00;;;;;;;13.40;11.90;;;;;;;0.31;86.17;99779.19;5055007;28;20189;-83
2022/04/04 01:08:27;;;;;;;13.95;11.50;;;;;;;0.46;85.67;99776.34;5054972;28;20289;-84
2022/04/04 01:10:55;;;;;;;14.82;12.02;;;;;;;0.51;85.61;99781.56;5056241;28;20185;-84
2022/04/04 01:13:22;;;;;;;16.83;10.77;;;;;;;0.69;86.12;99772.47;5056319;28;20192;-84
2022/04/04 01:15:48;;;;;;;13.60;12.20;;;;;;;0.93;85.28;99771.22;5054935;28;20192;-84
2022/04/04 01:18:15;;;;;;;17.30;12.23;;;;;;;0.95;86.57;99775.59;5054449;28;20189;-83
2022/04/04 01:20:41;;;;;;;15.98;11.90;;;;;;;0.82;85.43;99771.38;5054956;28;20181;-84
2022/04/04 01:23:08;;;;;;;14.13;11.77;;;;;;;0.46;86.59;99763.09;5053801;28;20178;-84
2022/04/04 01:25:36;;;;;;;17.58;12.52;;;;;;;0.43;87.36;99768.44;5047396;28;20189;-84
2022/04/04 01:28:05;;;;;;;17.08;13.65;;;;;;;0.63;88.51;99762.81;5055253;28;20215;-84
2022/04/04 01:30:32;;;;;;;15.00;11.85;;;;;;;0.60;87.13;99754.94;5055263;28;20198;-84
2022/04/04 01:33:00;;;;;;;16.67;13.07;;;;;;;0.48;87.86;99756.00;5054439;28;20193;-83
2022/04/04 01:35:26;;;;;;;16.33;11.40;;;;;;;0.55;88.35;99759.44;5054457;28;20601;-84
2022/04/04 01:37:53;;;;;;;18.70;13.20;;;;;;;0.59;88.07;99758.50;5054486;28;20517;-84
2022/04/04 01:40:19;;;;;;;16.27;12.50;;;;;;;0.35;88.41;99765.00;5054162;28;20624;-84
2022/04/04 01:42:51;;;;;;;15.25;12.63;;;;;;;0.21;90.32;99762.56;5054182;28;20626;-84
2022/04/04 01:45:18;;;;;;;15.82;12.40;;;;;;;0.18;90.76;99760.81;5053963;28;20193;-84
2022/04/04 01:47:45;;;;;;;14.75;11.88;;;;;;;0.37;89.79;99766.72;5054269;28;20186;-84
2022/04/04 01:50:12;;;;;;;15.80;12.95;;;;;;;0.38;88.54;99762.31;5054263;28;20213;-83
2022/04/04 01:52:39;;;;;;;14.82;12.27;;;;;;;0.28;89.35;99755.41;5053779;28;20588;-84
2022/04/04 01:55:06;;;;;;;14.65;11.73;;;;;;;0.50;88.18;99756.84;5053803;28;20200;-84
2022/04/04 01:57:34;;;;;;;16.95;12.55;;;;;;;0.47;89.07;99754.22;5054110;28;20235;-84
2022/04/04 02:00:04;;;;;;;17.02;12.85;;;;;;;0.66;89.38;99753.97;5053804;28;20194;-83
2022/04/04 02:02:31;;;;;;;14.27;11.05;;;;;;;0.54;89.21;99750.63;5053951;28;20197;-83
2022/04/04 02:04:57;;;;;;;16.13;12.73;;;;;;;0.49;91.46;99747.13;5054212;28;20204;-84
2022/04/04 02:07:24;;;;;;;17.15;13.95;;;;;;;0.44;94.24;99751.63;5054357;28;20668;-83
2022/04/04 02:09:53;;;;;;;17.42;14.40;;;;;;;0.57;92.72;99758.50;5053028;28;20202;-82
2022/04/04 02:12:19;;;;;;;19.45;14.23;;;;;;;0.41;96.28;99746.38;5053734;28;20194;-84
2022/04/04 02:14:46;;;;;;;17.20;14.00;;;;;;;0.56;95.57;99746.13;5053702;28;20185;-83
2022/04/04 02:17:14;;;;;;;17.52;14.50;;;;;;;0.62;94.99;99745.19;5053695;28;20220;-83
2022/04/04 02:19:41;;;;;;;23.75;15.10;;;;;;;0.53;95.70;99747.97;5053593;28;20244;-84
2022/04/04 02:22:08;;;;;;;17.88;13.43;;;;;;;0.68;95.55;99749.50;5053111;28;20197;-83
2022/04/04 02:24:35;;;;;;;16.83;13.43;;;;;;;0.71;94.99;99745.03;5053437;28;20280;-83
2022/04/04 02:27:02;;;;;;;17.77;13.80;;;;;;;0.69;95.19;99740.66;5053358;28;20189;-83
2022/04/04 02:29:28;;;;;;;17.35;13.85;;;;;;;0.73;94.87;99740.59;5053075;28;20297;-84
2022/04/04 02:31:55;;;;;;;20.38;14.35;;;;;;;0.56;95.37;99734.66;5053062;28;20193;-83
2022/04/04 02:34:23;;;;;;;18.67;13.30;;;;;;;0.53;96.45;99742.69;5053738;28;20192;-83
2022/04/04 02:36:49;;;;;;;16.52;13.43;;;;;;;0.59;96.11;99740.81;5053269;28;20194;-83
2022/04/04 02:39:16;;;;;;;17.20;13.63;;;;;;;0.67;95.95;99742.47;5053210;28;20186;-83
2022/04/04 02:41:42;;;;;;;16.48;12.88;;;;;;;0.72;94.88;99740.59;5052782;28;20188;-83
2022/04/04 02:44:09;;;;;;;19.90;12.65;;;;;;;0.46;93.93;99744.53;5052984;28;20193;-83
2022/04/04 02:46:36;;;;;;;16.40;12.60;;;;;;;0.52;95.08;99740.91;5053241;28;20201;-83
2022/04/04 02:49:02;;;;;;;18.08;13.57;;;;;;;0.48;95.45;99731.28;5052882;28;20219;-84
2022/04/04 02:51:30;;;;;;;20.23;13.57;;;;;;;0.59;95.17;99738.16;5052413;28;20197;-84
2022/04/04 02:53:57;;;;;;;21.10;13.13;;;;;;;0.62;95.90;99735.44;5052801;28;20196;-84
2022/04/04 02:56:32;;;;;;;16.77;11.65;;;;;;;0.52;97.39;99733.84;5051969;28;20194;-84
2022/04/04 02:59:00;;;;;;;17.00;12.77;;;;;;;0.59;96.31;99724.91;5052670;28;20658;-84
2022/04/04 03:01:27;;;;;;;16.10;12.55;;;;;;;0.69;95.72;99727.41;5052675;28;20247;-83
2022/04/04 03:03:54;;;;;;;13.23;11.82;;;;;;;0.62;96.11;99726.63;5053035;28;20193;-84
2022/04/04 03:06:21;;;;;;;18.13;13.40;;;;;;;0.49;96.85;99731.25;5053228;28;20189;-84
2022/04/04 03:08:49;;;;;;;15.52;12.18;;;;;;;0.54;96.93;99726.75;5053103;28;21082;-83
2022/04/04 03:11:16;;;;;;;14.50;11.05;;;;;;;0.46;97.61;99733.94;5052740;28;20220;-84
2022/04/04 03:13:43;;;;;;;19.83;12.88;;;;;;;0.59;97.02;99726.69;5052800;28;20371;-83
2022/04/04 03:16:09;;;;;;;15.02;12.63;;;;;;;0.57;96.81;99728.50;5052112;28;20193;-84
2022/04/04 03:18:36;;;;;;;17.45;12.85;;;;;;;0.45;98.02;99726.88;5052586;28;20201;-84
2022/04/04 03:21:04;;;;;;;14.85;10.95;;;;;;;0.36;98.11;99721.72;5051823;28;20889;-83
2022/04/04 03:23:31;;;;;;;13.77;12.32;;;;;;;0.36;98.56;99717.31;5052292;28;20215;-83
2022/04/04 03:25:59;;;;;;;13.80;11.73;;;;;;;0.44;95.18;99713.66;5052079;28;20189;-82
2022/04/04 03:28:26;;;;;;;16.00;11.88;;;;;;;0.37;97.24;99708.47;5052158;28;20197;-85
2022/04/04 03:30:53;;;;;;;18.88;12.50;;;;;;;0.19;96.18;99708.72;5051000;28;20326;-84
2022/04/04 03:33:20;;;;;;;15.30;11.77;;;;;;;0.07;97.89;99703.59;5052341;28;20189;-83
2022/04/04 03:35:47;;;;;;;18.23;12.57;;;;;;;0.17;98.74;99699.94;5051862;28;20201;-84
2022/04/04 03:38:14;;;;;;;18.38;14.07;;;;;;;0.34;99.32;99697.91;5052246;28;20528;-83
2022/04/04 03:40:41;;;;;;;15.48;12.20;;;;;;;0.23;100.00;99698.94;5051545;28;20611;-83
2022/04/04 03:43:09;;;;;;;16.75;12.77;;;;;;;0.26;100.00;99696.28;5051626;28;20205;-83
2022/04/04 03:45:37;;;;;;;15.00;11.80;;;;;;;0.37;100.00;99708.47;5051961;28;20551;-83
2022/04/04 03:48:04;;;;;;;16.67;14.20;;;;;;;0.03;99.05;99701.91;5052006;28;20194;-84
2022/04/04 03:50:31;;;;;;;17.85;12.63;;;;;;;0.10;99.79;99698.28;5051640;28;20624;-83
2022/04/04 03:52:58;;;;;;;18.15;13.32;;;;;;;-0.17;99.47;99702.16;5052070;28;20194;-84
2022/04/04 03:55:28;;;;;;;14.38;12.00;;;;;;;-0.45;100.00;99694.56;5051280;28;20190;-84
2022/04/04 03:57:55;;;;;;;17.25;13.30;;;;;;;-0.58;100.00;99696.47;5044887;28;20224;-84
2022/04/04 04:00:24;;;;;;;14.77;12.52;;;;;;;-0.51;100.00;99694.63;5051604;28;20276;-84
2022/04/04 04:02:52;;;;;;;15.05;11.80;;;;;;;-0.40;100.00;99699.81;5044508;28;20204;-84
2022/04/04 04:05:18;;;;;;;18.92;14.45;;;;;;;-0.38;100.00;99690.94;5051478;28;20542;-84
2022/04/04 04:07:45;;;;;;;14.98;13.05;;;;;;;-0.42;100.00;99686.59;5051007;28;20200;-84
2022/04/04 04:10:12;;;;;;;18.38;14.02;;;;;;;-0.57;100.00;99681.47;5052001;28;20531;-83
2022/04/04 04:12:39;;;;;;;17.10;13.00;;;;;;;-0.47;100.00;99676.06;5051702;28;20205;-83
2022/04/04 04:15:08;;;;;;;16.95;14.20;;;;;;;-0.36;100.00;99678.59;5054801;28;20205;-83
2022/04/04 04:17:35;;;;;;;17.20;14.27;;;;;;;-0.40;100.00;99670.72;5051995;28;20211;-84
2022/04/04 04:20:22;;;;;;;16.88;14.77;;;;;;;-0.44;100.00;99670.72;5051629;28;20208;-84
2022/04/04 04:22:54;;;;;;;21.38;13.68;;;;;;;-0.21;100.00;99669.56;5045635;28;20193;-84
2022/04/04 04:25:22;;;;;;;27.70;18.35;;;;;;;-0.24;100.00;99669.59;5050998;28;20196;-84
2022/04/04 04:27:49;;;;;;;18.40;12.82;;;;;;;-0.03;100.00;99671.94;5051060;28;20193;-84
2022/04/04 04:30:17;;;;;;;20.50;12.90;;;;;;;0.04;100.00;99672.75;5050709;28;20209;-83
2022/04/04 04:32:48;;;;;;;18.92;13.38;;;;;;;0.09;100.00;99667.38;5054241;28;20188;-83
2022/04/04 04:35:16;;;;;;;19.80;13.52;;;;;;;0.07;100.00;99674.47;5053973;28;20278;-83
2022/04/04 04:37:43;;;;;;;20.23;13.80;;;;;;;0.05;100.00;99669.22;5055654;28;20190;-82
2022/04/04 04:40:11;;;;;;;17.77;12.38;;;;;;;0.01;100.00;99675.44;5055198;28;20196;-83
2022/04/04 04:42:38;;;;;;;17.77;13.25;;;;;;;0.04;100.00;99667.44;5050318;28;20193;-83
2022/04/04 04:45:07;;;;;;;16.52;12.60;;;;;;;0.06;100.00;99662.13;5054948;28;20193;-83
2022/04/04 04:47:35;;;;;;;17.13;13.23;;;;;;;0.28;100.00;99660.06;5054431;28;20185;-83
2022/04/04 04:50:04;;;;;;;19.00;13.93;;;;;;;0.17;100.00;99661.06;5054297;28;20221;-83
2022/04/04 04:52:31;;;;;;;19.05;13.48;;;;;;;0.18;100.00;99661.94;5054693;28;20187;-84
2022/04/04 04:54:58;;;;;;;17.98;14.07;;;;;;;0.34;100.00;99654.63;5056739;28;20201;-85
2022/04/04 04:57:24;;;;;;;21.35;13.45;;;;;;;0.20;100.00;99662.78;5055500;28;20265;-84
2022/04/04 04:59:51;;;;;;;21.27;13.95;;;;;;;0.23;100.00;99651.28;5057594;28;20192;-87
2022/04/04 05:02:17;;;;;;;21.55;12.95;;;;;;;0.23;100.00;99651.28;5059575;28;20189;-87
2022/04/04 05:04:44;;;;;;;19.13;14.82;;;;;;;0.36;100.00;99656.38;5056819;28;20186;-84
2022/04/04 05:07:13;;;;;;;22.85;14.57;;;;;;;0.23;100.00;99653.94;5057015;28;20205;-86
2022/04/04 05:09:40;;;;;;;22.25;14.15;;;;;;;0.31;100.00;99655.56;5057260;28;20197;-86
2022/04/04 05:12:08;;;;;;;18.85;13.43;;;;;;;0.36;100.00;99655.50;5057772;28;20209;-84
2022/04/04 05:14:36;;;;;;;17.50;14.70;;;;;;;0.29;100.00;99656.50;5056644;28;20236;-84
2022/04/04 05:17:02;;;;;;;18.50;14.25;;;;;;;0.33;100.00;99652.91;5057839;28;20272;-85
2022/04/04 05:19:29;;;;;;;18.33;14.77;;;;;;;0.39;100.00;99656.34;5056175;28;20208;-81
2022/04/04 05:21:55;;;;;;;20.10;13.48;;;;;;;0.41;100.00;99656.31;5055252;28;20186;-85
2022/04/04 05:24:23;;;;;;;21.65;13.60;;;;;;;0.49;100.00;99656.19;5056581;28;20192;-84
2022/04/04 05:26:50;;;;;;;24.55;13.98;;;;;;;0.51;100.00;99657.03;5059368;28;20185;-86
2022/04/04 05:29:17;;;;;;;23.15;15.13;;;;;;;0.54;100.00;99654.31;5059274;28;20657;-85
2022/04/04 05:31:44;;;;;;;26.88;15.02;;;;;;;0.56;100.00;99640.16;5054905;28;20266;-84
2022/04/04 05:34:11;;;;;;;20.48;13.95;;;;;;;0.37;100.00;99644.00;5054679;28;20186;-85
2022/04/04 05:36:37;;;;;;;16.40;14.13;;;;;;;0.46;100.00;99653.59;5055199;28;20217;-85
2022/04/04 05:39:05;;;;;;;21.08;14.93;;;;;;;0.50;100.00;99649.97;5054433;28;20197;-86
2022/04/04 05:41:36;;;;;;;21.58;13.27;;;;;;;0.58;100.00;99651.59;5054630;28;20196;-85
2022/04/04 05:44:03;;;;;;;20.42;15.15;;;;;;;0.71;100.00;99648.75;5054179;28;20198;-85
2022/04/04 05:46:30;;;;;;;18.83;14.60;;;;;;;0.87;100.00;99650.22;5054863;28;20192;-84
2022/04/04 05:48:56;;;;;;;18.25;14.88;;;;;;;0.95;100.00;99650.97;5053473;28;20211;-82
2022/04/04 05:51:23;;;;;;;20.98;14.90;;;;;;;0.99;100.00;99647.34;5053385;28;20651;-84
2022/04/04 05:53:49;;;;;;;20.13;14.02;;;;;;;1.17;100.00;99645.25;5052873;28;20545;-83
2022/04/04 05:56:16;;;;;;;22.45;14.63;;;;;;;1.05;100.00;99649.03;5053634;28;20502;-84
2022/04/04 05:58:44;;;;;;;18.35;14.60;;;;;;;1.20;100.00;99643.44;5053121;28;20339;-84
2022/04/04 06:01:11;;;;;;;19.38;14.10;;;;;;;1.18;100.00;99645.25;5052967;28;20198;-84
2022/04/04 06:03:38;;;;;;;17.52;13.98;;;;;;;1.32;98.96;99637.00;5052323;28;20276;-88
2022/04/04 06:06:05;;;;;;;21.52;15.18;;;;;;;1.16;100.00;99644.38;5056945;28;20201;-87
2022/04/04 06:08:32;;;;;;;21.02;15.27;;;;;;;1.03;100.00;99649.03;5054165;28;20189;-86
2022/04/04 06:10:59;;;;;;;17.95;14.00;;;;;;;1.08;100.00;99648.09;5052696;28;20217;-84
2022/04/04 06:13:25;;;;;;;20.58;15.55;;;;;;;1.33;100.00;99645.84;5053401;28;20289;-83
2022/04/04 06:15:53;;;;;;;18.23;15.07;;;;;;;1.26;100.00;99647.72;5054244;28;20506;-85
2022/04/04 06:18:20;;;;;;;21.70;16.02;;;;;;;1.18;100.00;99650.53;5054492;28;20596;-83
2022/04/04 06:20:47;;;;;;;25.00;17.13;;;;;;;1.41;100.00;99647.44;5052472;28;20182;-84
2022/04/04 06:23:14;;;;;;;22.70;16.55;;;;;;;1.40;100.00;99640.41;5053584;28;20193;-85
2022/04/04 06:25:41;;;;;;;23.02;16.90;;;;;;;1.40;100.00;99643.03;5053788;28;20600;-84
2022/04/04 06:28:08;;;;;;;20.15;15.13;;;;;;;1.52;99.79;99647.22;5052958;28;20197;-84
2022/04/04 06:30:35;;;;;;;23.02;15.40;;;;;;;1.58;99.08;99648.88;5053655;28;20205;-84
2022/04/04 06:33:06;;;;;;;22.67;15.70;;;;;;;1.65;98.88;99645.16;5053375;28;20204;-84
2022/04/04 06:35:32;;;;;;;28.27;18.90;;;;;;;1.54;99.34;99641.88;5053166;28;20464;-84
2022/04/04 06:38:00;;;;;;;20.90;14.93;;;;;;;1.65;98.97;99648.72;5053467;28;20189;-85
2022/04/04 06:40:27;;;;;;;24.05;15.35;;;;;;;1.77;97.89;99649.38;5053943;28;20197;-85
2022/04/04 06:42:55;;;;;;;18.35;13.45;;;;;;;1.72;97.44;99641.50;5053400;28;20192;-84
2022/04/04 06:45:22;;;;;;;18.90;16.60;;;;;;;1.70;97.39;99640.66;5053467;28;20182;-84
2022/04/04 06:47:48;;;;;;;21.35;15.10;;;;;;;1.78;97.05;99638.69;5053298;28;20654;-84
2022/04/04 06:50:16;;;;;;;23.50;15.13;;;;;;;1.90;96.10;99639.34;5053270;28;20200;-84
2022/04/04 06:52:44;;;;;;;25.08;14.90;;;;;;;2.08;93.93;99644.22;5053167;28;20311;-84
2022/04/04 06:55:11;;;;;;;18.73;14.80;;;;;;;2.00;94.53;99633.78;5052497;28;20243;-85
2022/04/04 06:57:37;;;;;;;19.42;14.70;;;;;;;1.94;94.82;99628.59;5052698;28;20723;-84
2022/04/04 07:00:08;;;;;;;22.38;16.08;;;;;;;1.98;95.55;99629.44;5053762;28;20213;-84
2022/04/04 07:02:36;;;;;;;19.58;14.50;;;;;;;2.09;94.09;99619.44;5053734;28;20634;-85
2022/04/04 07:05:04;;;;;;;22.15;16.25;;;;;;;2.25;93.69;99620.81;5052214;28;20204;-84
2022/04/04 07:07:32;;;;;;;22.85;14.93;;;;;;;2.45;91.65;99622.97;5053222;28;20544;-84
2022/04/04 07:10:00;;;;;;;20.40;15.82;;;;;;;2.22;92.29;99620.88;5052328;28;20200;-84
2022/04/04 07:12:27;;;;;;;19.25;15.07;;;;;;;2.28;92.56;99631.38;5053534;28;20221;-84
2022/04/04 07:14:54;;;;;;;23.67;17.17;;;;;;;2.50;91.36;99620.22;5052689;28;20192;-84
2022/04/04 07:17:21;;;;;;;19.70;15.30;;;;;;;2.83;88.89;99620.28;5053485;28;20197;-85
2022/04/04 07:19:47;;;;;;;26.33;18.40;;;;;;;2.75;89.58;99616.94;5053362;28;20539;-85
2022/04/04 07:22:16;;;;;;;20.27;15.18;;;;;;;3.25;86.13;99610.22;5052849;28;20186;-85
2022/04/04 07:24:44;;;;;;;20.27;14.43;;;;;;;3.49;83.23;99614.00;5052357;28;20302;-84
2022/04/04 07:27:11;;;;;;;24.92;15.57;;;;;;;3.59;82.59;99606.59;5052960;28;20264;-85
2022/04/04 07:29:37;;;;;;;21.95;16.48;;;;;;;3.11;82.74;99607.09;5052898;28;20236;-83
2022/04/04 07:32:05;;;;;;;19.40;14.95;;;;;;;3.28;83.53;99604.84;5052403;28;20307;-85
2022/04/04 07:34:32;;;;;;;32.45;17.77;;;;;;;3.36;82.87;99599.28;5052135;28;20181;-84
2022/04/04 07:36:58;;;;;;;20.33;15.23;;;;;;;3.25;82.85;99599.59;5052967;28;20212;-84
2022/04/04 07:39:25;;;;;;;20.63;15.38;;;;;;;3.05;84.00;99602.84;5052779;28;20276;-84
2022/04/04 07:41:54;;;;;;;20.60;14.80;;;;;;;3.15;83.34;99597.25;5052744;28;20222;-85
2022/04/04 07:44:20;;;;;;;31.10;17.08;;;;;;;3.20;83.71;99592.66;5051874;28;20193;-85
2022/04/04 07:46:47;;;;;;;20.20;15.85;;;;;;;3.38;81.87;99589.47;5052326;28;20661;-84
2022/04/04 07:49:13;;;;;;;20.23;13.68;;;;;;;3.48;81.42;99588.31;5052729;28;20687;-84
2022/04/04 07:51:40;;;;;;;27.98;15.60;;;;;;;3.84;80.35;99592.56;5052320;28;20681;-84
2022/04/04 07:54:07;;;;;;;19.13;15.13;;;;;;;4.15;77.17;99585.34;5051953;28;20277;-85
2022/04/04 07:56:33;;;;;;;33.53;16.08;;;;;;;4.50;74.36;99574.44;5051845;28;20204;-83
2022/04/04 07:59:01;;;;;;;17.00;15.13;;;;;;;4.59;71.68;99564.34;5051577;28;20233;-84
2022/04/04 08:01:28;;;;;;;25.80;16.98;;;;;;;5.02;69.89;99567.31;5032207;28;20199;-84
2022/04/04 08:03:54;;;;;;;18.98;15.27;;;;;;;4.69;69.81;99570.22;5037720;28;20205;-84
2022/04/04 08:06:21;;;;;;;21.05;15.55;;;;;;;4.59;71.91;99560.81;5051883;28;20655;-84
2022/04/04 08:08:48;;;;;;;36.30;16.48;;;;;;;4.83;71.21;99556.41;5051237;28;20274;-85
2022/04/04 08:11:14;;;;;;;21.75;16.20;;;;;;;4.90;70.44;99551.72;5051921;28;20207;-84
2022/04/04 08:13:44;;;;;;;21.75;15.77;;;;;;;5.13;68.56;99553.56;5053205;28;20203;-85
2022/04/04 08:16:12;;;;;;;18.42;14.85;;;;;;;5.29;66.68;99549.41;5052200;28;20196;-84
2022/04/04 08:18:39;;;;;;;22.85;15.77;;;;;;;5.49;66.59;99551.31;5051928;28;20196;-85
2022/04/04 08:21:06;;;;;;;13.43;12.02;;;;;;;5.74;57.14;99542.34;5052306;28;20243;-83
2022/04/04 08:23:32;;;;;;;12.93;10.52;;;;;;;6.01;51.79;99546.63;5051633;28;20238;-84
2022/04/04 08:26:00;;;;;;;12.27;10.82;;;;;;;5.96;50.68;99540.59;5051466;28;20292;-85
2022/04/04 08:28:28;;;;;;;12.93;11.15;;;;;;;5.93;50.14;99540.72;5052262;28;20223;-85
2022/04/04 08:30:55;;;;;;;11.20;10.13;;;;;;;5.60;50.90;99538.41;5052180;28;20196;-86
2022/04/04 08:33:24;;;;;;;15.00;11.70;;;;;;;5.78;50.73;99535.97;5052469;28;20192;-85
2022/04/04 08:35:52;;;;;;;12.02;10.60;;;;;;;6.08;49.36;99525.88;5051742;28;20761;-83
2022/04/04 08:38:20;;;;;;;13.63;9.85;;;;;;;6.14;49.17;99530.09;5051992;28;20187;-83
2022/04/04 08:40:49;;;;;;;12.07;10.35;;;;;;;6.22;49.10;99517.31;5051827;28;20543;-84
2022/04/04 08:43:18;;;;;;;14.45;11.68;;;;;;;6.51;47.87;99521.41;5051735;28;20292;-84
2022/04/04 08:45:48;;;;;;;11.18;8.93;;;;;;;6.65;46.29;99512.81;5051978;28;20182;-83
2022/04/04 08:48:16;;;;;;;13.05;9.82;;;;;;;6.57;46.50;99509.59;5052411;28;20554;-84
2022/04/04 08:50:44;;;;;;;11.27;10.07;;;;;;;6.34;45.87;99507.91;5050998;28;20247;-84
2022/04/04 08:53:11;;;;;;;12.73;10.30;;;;;;;6.64;46.04;99497.66;5032204;28;20656;-84
2022/04/04 08:55:38;;;;;;;11.48;9.20;;;;;;;6.90;45.26;99507.25;5032149;28;20186;-84
2022/04/04 08:58:05;;;;;;;10.75;9.65;;;;;;;6.68;44.92;99499.28;5031530;28;20667;-84
2022/04/04 09:00:33;;;;;;;9.20;8.30;;;;;;;6.74;44.04;99498.13;5045675;28;20240;-83
2022/04/04 09:03:03;;;;;;;10.77;9.15;;;;;;;6.82;44.25;99491.50;5053004;28;20582;-83
2022/04/04 09:05:32;;;;;;;9.18;7.85;;;;;;;6.97;43.15;99491.78;5052313;28;20272;-84
2022/04/04 09:08:03;;;;;;;10.60;8.07;;;;;;;6.82;42.97;99480.81;5046230;28;20205;-83
2022/04/04 09:10:36;;;;;;;12.80;9.05;;;;;;;7.29;42.28;99483.13;5035712;28;20193;-84
2022/04/04 09:13:07;;;;;;;11.75;7.15;;;;;;;7.25;41.84;99475.31;5051230;28;20686;-84
2022/04/04 09:15:50;;;;;;;12.43;7.72;;;;;;;7.59;41.30;99471.91;5049084;28;20193;-83
2022/04/04 09:18:17;;;;;;;9.07;6.82;;;;;;;7.64;40.77;99469.91;5052864;28;20550;-83
2022/04/04 09:20:48;;;;;;;7.50;6.70;;;;;;;7.69;40.16;99457.13;5055230;28;20196;-84
2022/04/04 09:23:16;;;;;;;7.85;7.05;;;;;;;7.68;40.21;99450.00;5055729;28;20306;-84
2022/04/04 09:25:43;;;;;;;9.82;6.78;;;;;;;8.12;39.78;99452.31;5054633;28;20203;-83
2022/04/04 09:28:17;;;;;;;7.50;6.72;;;;;;;8.18;39.27;99436.84;5055059;28;20217;-83
2022/04/04 09:30:45;;;;;;;7.93;6.63;;;;;;;7.80;39.53;99437.84;5055106;28;20190;-84
2022/04/04 09:33:15;;;;;;;8.43;6.95;;;;;;;7.47;40.44;99440.34;5055192;28;20675;-84
2022/04/04 09:35:46;;;;;;;8.55;7.45;;;;;;;7.92;39.91;99429.19;5056361;28;20204;-84
2022/04/04 09:38:17;;;;;;;8.65;6.95;;;;;;;8.15;39.79;99425.34;5054411;28;20283;-84
2022/04/04 09:40:44;;;;;;;10.07;7.38;;;;;;;8.61;39.12;99411.38;5053835;28;20223;-84
2022/04/04 09:43:10;;;;;;;7.75;6.95;;;;;;;8.44;39.34;99414.97;5054204;28;20536;-84
2022/04/04 09:45:38;;;;;;;6.47;5.88;;;;;;;8.44;37.52;99425.69;5054200;28;20217;-84
2022/04/04 09:48:07;;;;;;;5.70;4.95;;;;;;;8.07;37.46;99403.44;5053746;28;20204;-84
2022/04/04 09:50:43;;;;;;;7.75;5.80;;;;;;;8.05;37.80;99410.69;5053662;28;20186;-83
2022/04/04 09:53:12;;;;;;;6.75;5.85;;;;;;;8.01;38.31;99410.91;5053040;28;20665;-83
2022/04/04 09:55:42;;;;;;;7.30;5.40;;;;;;;8.37;37.58;99386.69;5053021;28;20228;-84
2022/04/04 09:58:11;;;;;;;5.70;5.20;;;;;;;8.13;36.82;99395.03;5052923;28;20237;-83
2022/04/04 10:00:39;;;;;;;9.50;5.90;;;;;;;8.01;37.40;99392.16;5052571;28;20197;-84
2022/04/04 10:03:12;;;;;;;6.15;4.82;;;;;;;8.22;37.49;99390.16;5054264;28;20190;-85
2022/04/04 10:05:40;;;;;;;9.88;6.60;;;;;;;8.67;36.73;99388.72;5045263;28;20185;-85
2022/04/04 10:08:08;;;;;;;5.78;5.22;;;;;;;8.59;36.65;99374.84;5054356;28;20292;-84
2022/04/04 10:10:37;;;;;;;6.32;5.68;;;;;;;8.34;37.29;99384.16;5052525;28;20186;-84
2022/04/04 10:13:05;;;;;;;6.78;6.15;;;;;;;8.13;37.41;99381.63;5053703;28;20248;-84
2022/04/04 10:15:35;;;;;;;6.18;5.68;;;;;;;7.91;38.08;99378.31;5053758;28;20182;-84
2022/04/04 10:18:02;;;;;;;5.20;4.70;;;;;;;8.16;36.68;99377.91;5053825;28;20205;-84
2022/04/04 10:20:29;;;;;;;6.03;4.93;;;;;;;8.22;36.62;99369.56;5055593;28;20190;-83
2022/04/04 10:22:59;;;;;;;5.20;4.70;;;;;;;8.32;37.28;99367.25;5051732;28;20267;-84
2022/04/04 10:25:28;;;;;;;6.82;5.13;;;;;;;8.24;37.27;99358.78;5053643;28;20276;-84
2022/04/04 10:27:55;;;;;;;6.20;5.05;;;;;;;8.23;37.31;99357.91;5053339;28;20229;-83
2022/04/04 10:30:34;;;;;;;5.65;5.15;;;;;;;8.25;37.33;99357.81;5055599;28;20195;-84
2022/04/04 10:33:03;;;;;;;6.15;5.55;;;;;;;8.32;36.92;99356.53;5049735;28;20213;-84
2022/04/04 10:35:32;;;;;;;8.70;6.32;;;;;;;8.38;37.01;99350.84;5055032;28;20204;-84
2022/04/04 10:38:03;;;;;;;6.13;5.53;;;;;;;8.10;37.95;99344.25;5055515;28;20601;-86
2022/04/04 10:40:31;;;;;;;8.48;6.40;;;;;;;8.52;37.99;99336.72;5055319;28;20197;-84
2022/04/04 10:43:09;;;;;;;7.10;6.40;;;;;;;8.62;37.98;99329.94;5058768;28;20248;-84
2022/04/04 10:45:53;;;;;;;8.82;6.68;;;;;;;8.80;37.02;99333.44;5053234;28;20646;-84
2022/04/04 10:48:21;;;;;;;13.27;11.88;;;;;;;9.05;37.46;99321.31;5059033;28;20207;-83
2022/04/04 10:50:48;;;;;;;7.45;6.75;;;;;;;8.87;37.59;99331.28;5052968;28;20191;-83
2022/04/04 10:53:15;;;;;;;7.43;6.72;;;;;;;9.39;37.01;99328.31;5056369;28;20222;-84
2022/04/04 10:55:44;;;;;;;7.18;6.57;;;;;;;9.47;36.80;99311.75;5053608;28;20391;-85
2022/04/04 10:58:13;;;;;;;6.70;6.00;;;;;;;9.06;37.67;99302.41;5053443;28;20226;-85
2022/04/04 11:01:07;;;;;;;8.35;6.00;;;;;;;9.00;38.32;99300.09;5053339;28;20222;-86
2022/04/04 11:03:36;;;;;;;7.53;6.68;;;;;;;9.47;38.16;99295.63;5050390;28;20201;-85
2022/04/04 11:09:22;;;;;;;15.00;5.97;;;;;;;9.49;35.70;99299.94;5054514;28;20190;-86
2022/04/04 11:11:52;;;;;;;5.82;5.32;;;;;;;9.33;36.00;99283.00;5053525;28;20191;-84
2022/04/04 11:14:42;;;;;;;5.65;5.15;;;;;;;8.81;36.68;99281.44;5053444;28;20197;-84
2022/04/04 11:17:19;;;;;;;10.55;6.72;;;;;;;9.11;36.60;99270.81;5052881;28;20277;-85
2022/04/04 11:19:47;;;;;;;6.40;5.80;;;;;;;9.15;36.93;99282.22;5053207;28;20193;-84
2022/04/04 11:22:15;;;;;;;8.07;5.93;;;;;;;9.85;36.23;99263.78;5053731;28;20649;-84
2022/04/04 11:24:43;;;;;;;6.45;5.70;;;;;;;9.87;35.79;99274.44;5052399;28;20194;-83
2022/04/04 11:27:10;;;;;;;7.35;6.20;;;;;;;9.36;36.49;99258.63;5052139;28;20554;-83
2022/04/04 11:29:39;;;;;;;7.28;6.60;;;;;;;9.72;36.37;99250.22;5052987;28;20600;-83
2022/04/04 11:32:08;;;;;;;7.60;6.65;;;;;;;10.05;35.90;99248.25;5052901;28;20946;-85
2022/04/04 11:34:39;;;;;;;9.23;6.80;;;;;;;9.90;36.67;99252.72;5054114;28;20358;-85